MMTC/TRC METAR and TAF weather

Enter ICAO airport designator
Station Type Date Time Source
MMTC METAR 2020/08/10 23:40 UTC NOAA

MMTC 102340Z 02008KT 10SM SCT020 36/10 A2998 RMK SLP047 57020 904 8/500 ISOL CI


Station Type Date Time Source
MMTC Decoded METAR 2020/08/10 23:40 UTC NOAA

Torreon, Coah., Mexico (MMTC) 25-32N 103-27W 1150M
Aug 10, 2020 - 07:40 PM EDT / 2020.08.10 2340 UTC
Wind: from the NNE (020 degrees) at 9 MPH (8 KT):0
Visibility: 10 mile(s):0
Sky conditions: partly cloudy
Temperature: 96 F (36 C)
Dew Point: 50 F (10 C)
Relative Humidity: 20%
Pressure (altimeter): 29.98 in. Hg (1015 hPa)
Pressure tendency: 0.06 inches (2.0 hPa) lower than three hours ago
ob: MMTC 102340Z 02008KT 10SM SCT020 36/10 A2998 RMK SLP047 57020 904 8/500 ISOL CI
cycle: 23

Station Type Date Time Source
MMTC TAF 2020/08/10 18:36 UTC NOAA

TAF MMTC 101729Z 1018/1118 12015KT P6SM SCT050 SCT230
FM110200 12010KT P6SM BKN025CB BKN120
TEMPO 1102/1106 6SM TSRA
FM110900 00000KT P6SM SCT100 SCT250
FM111500 12010KT P6SM SCT080

Example: see airport list